sensor_id;sensor_type;location;lat;lon;timestamp;pressure;altitude;pressure_sealevel;temperature;humidity
15529;BME280;7866;52.280;9.500;2023-04-02T00:02:47;99965.53;;;4.25;97.21
15529;BME280;7866;52.280;9.500;2023-04-02T00:07:58;99977.22;;;4.03;97.12
15529;BME280;7866;52.280;9.500;2023-04-02T00:13:05;99982.03;;;3.88;96.36
15529;BME280;7866;52.280;9.500;2023-04-02T00:18:19;99991.41;;;4.02;95.28
15529;BME280;7866;52.280;9.500;2023-04-02T00:23:23;99992.97;;;4.14;94.67
15529;BME280;7866;52.280;9.500;2023-04-02T00:28:25;100001.78;;;4.15;94.33
15529;BME280;7866;52.280;9.500;2023-04-02T00:33:29;100016.50;;;3.98;94.91
15529;BME280;7866;52.280;9.500;2023-04-02T00:38:34;100021.72;;;3.79;94.39
15529;BME280;7866;52.280;9.500;2023-04-02T00:43:36;100022.63;;;3.58;92.43
15529;BME280;7866;52.280;9.500;2023-04-02T00:48:43;100039.75;;;3.85;91.97
15529;BME280;7866;52.280;9.500;2023-04-02T00:53:49;100049.09;;;3.58;92.03
15529;BME280;7866;52.280;9.500;2023-04-02T00:58:55;100060.25;;;3.62;91.41
15529;BME280;7866;52.280;9.500;2023-04-02T01:03:58;100067.63;;;3.58;91.85
15529;BME280;7866;52.280;9.500;2023-04-02T01:09:13;100067.22;;;3.63;91.15
15529;BME280;7866;52.280;9.500;2023-04-02T01:14:29;100074.31;;;3.53;90.75
15529;BME280;7866;52.280;9.500;2023-04-02T01:19:52;100081.13;;;3.34;90.11
15529;BME280;7866;52.280;9.500;2023-04-02T01:25:02;100090.50;;;3.38;90.00
15529;BME280;7866;52.280;9.500;2023-04-02T01:30:08;100101.22;;;3.37;89.67
15529;BME280;7866;52.280;9.500;2023-04-02T01:35:12;100116.81;;;3.51;89.56
15529;BME280;7866;52.280;9.500;2023-04-02T01:40:22;100130.72;;;3.53;89.75
15529;BME280;7866;52.280;9.500;2023-04-02T01:45:29;100136.72;;;3.34;88.70
15529;BME280;7866;52.280;9.500;2023-04-02T01:50:34;100137.75;;;3.22;87.74
15529;BME280;7866;52.280;9.500;2023-04-02T01:55:40;100152.97;;;3.30;87.36
15529;BME280;7866;52.280;9.500;2023-04-02T02:00:46;100160.22;;;3.28;87.99
15529;BME280;7866;52.280;9.500;2023-04-02T02:05:50;100168.41;;;3.25;86.77
15529;BME280;7866;52.280;9.500;2023-04-02T02:16:28;100190.34;;;3.15;86.64
15529;BME280;7866;52.280;9.500;2023-04-02T02:21:37;100201.47;;;3.30;86.13
15529;BME280;7866;52.280;9.500;2023-04-02T02:26:41;100212.66;;;3.22;85.46
15529;BME280;7866;52.280;9.500;2023-04-02T02:31:46;100220.19;;;3.06;86.09
15529;BME280;7866;52.280;9.500;2023-04-02T02:36:56;100232.53;;;3.28;86.14
15529;BME280;7866;52.280;9.500;2023-04-02T02:42:01;100240.69;;;3.25;85.60
15529;BME280;7866;52.280;9.500;2023-04-02T02:47:10;100253.34;;;3.21;85.58
15529;BME280;7866;52.280;9.500;2023-04-02T02:52:16;100264.53;;;3.14;86.03
15529;BME280;7866;52.280;9.500;2023-04-02T02:57:21;100279.81;;;3.21;85.29
15529;BME280;7866;52.280;9.500;2023-04-02T03:02:27;100287.28;;;3.05;84.90
15529;BME280;7866;52.280;9.500;2023-04-02T03:07:30;100289.63;;;3.31;85.47
15529;BME280;7866;52.280;9.500;2023-04-02T03:12:41;100297.03;;;3.05;85.09
15529;BME280;7866;52.280;9.500;2023-04-02T03:17:50;100303.16;;;3.05;85.00
15529;BME280;7866;52.280;9.500;2023-04-02T03:22:57;100322.50;;;3.17;85.85
15529;BME280;7866;52.280;9.500;2023-04-02T03:28:03;100327.09;;;3.04;85.33
15529;BME280;7866;52.280;9.500;2023-04-02T03:33:11;100332.72;;;2.99;84.43
15529;BME280;7866;52.280;9.500;2023-04-02T03:38:17;100343.91;;;3.03;83.79
15529;BME280;7866;52.280;9.500;2023-04-02T03:43:23;100355.34;;;2.92;82.97
15529;BME280;7866;52.280;9.500;2023-04-02T03:48:30;100360.03;;;3.11;83.57
15529;BME280;7866;52.280;9.500;2023-04-02T03:53:37;100367.84;;;3.01;82.12
15529;BME280;7866;52.280;9.500;2023-04-02T03:58:43;100375.31;;;2.96;82.56
15529;BME280;7866;52.280;9.500;2023-04-02T04:03:49;100391.91;;;2.98;81.83
15529;BME280;7866;52.280;9.500;2023-04-02T04:08:55;100407.31;;;3.04;82.63
15529;BME280;7866;52.280;9.500;2023-04-02T04:14:02;100409.34;;;3.12;82.45
15529;BME280;7866;52.280;9.500;2023-04-02T04:19:13;100417.50;;;2.86;81.21
15529;BME280;7866;52.280;9.500;2023-04-02T04:24:21;100424.84;;;2.94;81.37
15529;BME280;7866;52.280;9.500;2023-04-02T04:29:32;100433.50;;;2.96;80.85
15529;BME280;7866;52.280;9.500;2023-04-02T04:34:41;100445.53;;;2.89;80.83
15529;BME280;7866;52.280;9.500;2023-04-02T04:39:49;100450.59;;;2.92;80.71
15529;BME280;7866;52.280;9.500;2023-04-02T04:44:57;100470.03;;;2.91;80.44
15529;BME280;7866;52.280;9.500;2023-04-02T04:50:06;100481.22;;;2.83;80.39
15529;BME280;7866;52.280;9.500;2023-04-02T04:55:26;100488.53;;;2.80;79.52
15529;BME280;7866;52.280;9.500;2023-04-02T05:00:35;100495.78;;;2.89;79.52
15529;BME280;7866;52.280;9.500;2023-04-02T05:05:40;100504.22;;;3.05;79.56
15529;BME280;7866;52.280;9.500;2023-04-02T05:10:46;100515.66;;;3.06;79.40
15529;BME280;7866;52.280;9.500;2023-04-02T05:15:53;100523.09;;;3.01;79.04
15529;BME280;7866;52.280;9.500;2023-04-02T05:20:59;100537.28;;;3.00;78.46
15529;BME280;7866;52.280;9.500;2023-04-02T05:26:06;100541.97;;;2.96;77.57
15529;BME280;7866;52.280;9.500;2023-04-02T05:31:11;100561.56;;;2.93;77.27
15529;BME280;7866;52.280;9.500;2023-04-02T05:36:22;100568.44;;;2.96;77.18
15529;BME280;7866;52.280;9.500;2023-04-02T05:41:26;100580.47;;;3.00;76.75
15529;BME280;7866;52.280;9.500;2023-04-02T05:46:33;100581.91;;;3.04;77.03
15529;BME280;7866;52.280;9.500;2023-04-02T05:51:42;100599.13;;;3.10;77.64
15529;BME280;7866;52.280;9.500;2023-04-02T05:56:47;100607.81;;;3.12;76.60
15529;BME280;7866;52.280;9.500;2023-04-02T06:01:54;100609.94;;;3.07;76.14
15529;BME280;7866;52.280;9.500;2023-04-02T06:07:02;100622.31;;;3.06;75.69
15529;BME280;7866;52.280;9.500;2023-04-02T06:12:15;100613.94;;;3.12;75.56
15529;BME280;7866;52.280;9.500;2023-04-02T06:17:19;100645.13;;;3.20;74.71
15529;BME280;7866;52.280;9.500;2023-04-02T06:22:25;100651.97;;;3.22;75.58
15529;BME280;7866;52.280;9.500;2023-04-02T06:27:32;100668.25;;;3.05;73.77
15529;BME280;7866;52.280;9.500;2023-04-02T06:32:34;100675.06;;;3.20;73.85
15529;BME280;7866;52.280;9.500;2023-04-02T06:37:39;100676.53;;;3.25;73.43
15529;BME280;7866;52.280;9.500;2023-04-02T06:42:43;100694.31;;;3.22;73.88
15529;BME280;7866;52.280;9.500;2023-04-02T06:47:49;100699.28;;;3.27;74.05
15529;BME280;7866;52.280;9.500;2023-04-02T06:52:55;100710.31;;;3.21;73.31
15529;BME280;7866;52.280;9.500;2023-04-02T06:57:58;100717.47;;;3.32;72.75
15529;BME280;7866;52.280;9.500;2023-04-02T07:03:00;100725.91;;;3.37;73.39
15529;BME280;7866;52.280;9.500;2023-04-02T07:08:07;100735.31;;;3.41;72.62
15529;BME280;7866;52.280;9.500;2023-04-02T07:13:12;100745.00;;;3.29;72.56
15529;BME280;7866;52.280;9.500;2023-04-02T07:18:22;100758.69;;;3.47;72.62
15529;BME280;7866;52.280;9.500;2023-04-02T07:23:25;100769.53;;;3.44;71.89
15529;BME280;7866;52.280;9.500;2023-04-02T07:28:27;100774.13;;;3.53;72.13
15529;BME280;7866;52.280;9.500;2023-04-02T07:33:29;100784.03;;;3.62;73.27
15529;BME280;7866;52.280;9.500;2023-04-02T07:38:32;100788.88;;;3.68;72.68
15529;BME280;7866;52.280;9.500;2023-04-02T07:43:34;100793.97;;;3.72;72.67
15529;BME280;7866;52.280;9.500;2023-04-02T07:48:36;100808.31;;;3.80;73.54
15529;BME280;7866;52.280;9.500;2023-04-02T07:53:38;100810.16;;;3.91;73.90
15529;BME280;7866;52.280;9.500;2023-04-02T07:58:41;100824.16;;;3.93;73.53
15529;BME280;7866;52.280;9.500;2023-04-02T08:03:42;100834.66;;;4.06;73.81
15529;BME280;7866;52.280;9.500;2023-04-02T08:08:45;100837.75;;;3.88;73.10
15529;BME280;7866;52.280;9.500;2023-04-02T08:13:47;100841.63;;;3.95;74.27
15529;BME280;7866;52.280;9.500;2023-04-02T08:18:48;100860.50;;;3.91;72.22
15529;BME280;7866;52.280;9.500;2023-04-02T08:23:51;100865.84;;;4.02;72.43
15529;BME280;7866;52.280;9.500;2023-04-02T08:28:53;100878.72;;;4.19;73.39
15529;BME280;7866;52.280;9.500;2023-04-02T08:33:54;100891.13;;;4.30;73.60
15529;BME280;7866;52.280;9.500;2023-04-02T08:38:58;100891.63;;;4.24;72.69
15529;BME280;7866;52.280;9.500;2023-04-02T08:49:31;100902.44;;;4.21;71.92
15529;BME280;7866;52.280;9.500;2023-04-02T08:54:37;100922.44;;;4.49;73.76
15529;BME280;7866;52.280;9.500;2023-04-02T08:59:43;100925.50;;;4.32;73.19
15529;BME280;7866;52.280;9.500;2023-04-02T09:04:46;100946.09;;;4.28;72.65
15529;BME280;7866;52.280;9.500;2023-04-02T09:09:49;100944.03;;;4.56;72.55
15529;BME280;7866;52.280;9.500;2023-04-02T09:15:00;100956.91;;;4.49;72.31
15529;BME280;7866;52.280;9.500;2023-04-02T09:20:15;100970.38;;;4.46;72.74
15529;BME280;7866;52.280;9.500;2023-04-02T09:25:21;100976.78;;;4.43;71.53
15529;BME280;7866;52.280;9.500;2023-04-02T09:30:32;100981.09;;;4.68;71.63
15529;BME280;7866;52.280;9.500;2023-04-02T09:35:54;100991.78;;;4.56;71.54
15529;BME280;7866;52.280;9.500;2023-04-02T09:40:59;100992.19;;;4.74;72.07
15529;BME280;7866;52.280;9.500;2023-04-02T09:46:13;101002.94;;;4.72;72.24
15529;BME280;7866;52.280;9.500;2023-04-02T09:51:20;101008.69;;;5.01;72.59
15529;BME280;7866;52.280;9.500;2023-04-02T09:56:23;101018.44;;;4.89;71.92
15529;BME280;7866;52.280;9.500;2023-04-02T10:01:28;101026.38;;;4.89;71.09
15529;BME280;7866;52.280;9.500;2023-04-02T10:06:33;101039.84;;;5.10;71.18
15529;BME280;7866;52.280;9.500;2023-04-02T10:11:36;101052.56;;;4.83;69.90
15529;BME280;7866;52.280;9.500;2023-04-02T10:16:40;101057.66;;;4.97;71.07
15529;BME280;7866;52.280;9.500;2023-04-02T10:21:44;101060.53;;;4.94;70.01
15529;BME280;7866;52.280;9.500;2023-04-02T10:26:58;101062.09;;;5.21;70.57
15529;BME280;7866;52.280;9.500;2023-04-02T10:32:07;101067.69;;;5.40;69.62
15529;BME280;7866;52.280;9.500;2023-04-02T10:37:37;101081.50;;;5.21;69.01
15529;BME280;7866;52.280;9.500;2023-04-02T10:42:49;101077.38;;;5.52;68.46
15529;BME280;7866;52.280;9.500;2023-04-02T10:47:58;101083.91;;;5.13;68.69
15529;BME280;7866;52.280;9.500;2023-04-02T10:53:09;101099.16;;;4.98;67.52
15529;BME280;7866;52.280;9.500;2023-04-02T10:58:19;101098.31;;;5.33;68.61
15529;BME280;7866;52.280;9.500;2023-04-02T11:03:30;101102.34;;;5.50;68.16
15529;BME280;7866;52.280;9.500;2023-04-02T11:08:38;101104.94;;;5.85;66.65
15529;BME280;7866;52.280;9.500;2023-04-02T11:13:51;101118.97;;;5.98;66.43
15529;BME280;7866;52.280;9.500;2023-04-02T11:19:20;101118.72;;;6.46;66.17
15529;BME280;7866;52.280;9.500;2023-04-02T11:24:25;101128.66;;;6.22;66.79
15529;BME280;7866;52.280;9.500;2023-04-02T11:29:35;101133.72;;;6.13;64.55
15529;BME280;7866;52.280;9.500;2023-04-02T11:40:45;101135.31;;;6.93;61.23
15529;BME280;7866;52.280;9.500;2023-04-02T11:45:53;101146.50;;;6.76;63.56
15529;BME280;7866;52.280;9.500;2023-04-02T11:50:57;101158.56;;;6.91;61.50
15529;BME280;7866;52.280;9.500;2023-04-02T11:56:08;101163.22;;;6.55;63.19
15529;BME280;7866;52.280;9.500;2023-04-02T12:01:34;101169.88;;;6.61;63.66
15529;BME280;7866;52.280;9.500;2023-04-02T12:06:52;101171.97;;;6.35;63.79
15529;BME280;7866;52.280;9.500;2023-04-02T12:11:58;101177.75;;;6.40;61.95
15529;BME280;7866;52.280;9.500;2023-04-02T12:17:03;101177.25;;;6.57;63.76
15529;BME280;7866;52.280;9.500;2023-04-02T12:22:05;101183.03;;;6.74;62.64
15529;BME280;7866;52.280;9.500;2023-04-02T12:27:17;101189.34;;;6.61;61.15
15529;BME280;7866;52.280;9.500;2023-04-02T12:32:27;101187.13;;;6.78;63.93
15529;BME280;7866;52.280;9.500;2023-04-02T12:37:31;101182.16;;;7.28;62.28
15529;BME280;7866;52.280;9.500;2023-04-02T12:42:34;101187.53;;;7.70;61.57
15529;BME280;7866;52.280;9.500;2023-04-02T12:47:43;101177.53;;;7.83;62.02
15529;BME280;7866;52.280;9.500;2023-04-02T12:52:47;101177.53;;;8.13;57.89
15529;BME280;7866;52.280;9.500;2023-04-02T12:57:54;101180.81;;;8.38;58.93
15529;BME280;7866;52.280;9.500;2023-04-02T13:03:14;101181.75;;;8.77;55.17
15529;BME280;7866;52.280;9.500;2023-04-02T13:08:18;101180.19;;;8.34;59.51
15529;BME280;7866;52.280;9.500;2023-04-02T13:13:26;101180.06;;;8.76;58.90
15529;BME280;7866;52.280;9.500;2023-04-02T13:18:31;101183.81;;;9.24;56.92
15529;BME280;7866;52.280;9.500;2023-04-02T13:23:35;101169.03;;;9.20;56.97
15529;BME280;7866;52.280;9.500;2023-04-02T13:28:38;101174.94;;;9.62;57.25
15529;BME280;7866;52.280;9.500;2023-04-02T13:33:41;101186.22;;;9.46;55.05
15529;BME280;7866;52.280;9.500;2023-04-02T13:38:42;101189.84;;;9.74;56.15
15529;BME280;7866;52.280;9.500;2023-04-02T13:43:44;101194.63;;;9.80;54.90
15529;BME280;7866;52.280;9.500;2023-04-02T13:48:48;101203.44;;;8.84;56.64
15529;BME280;7866;52.280;9.500;2023-04-02T13:53:53;101206.94;;;8.75;58.00
15529;BME280;7866;52.280;9.500;2023-04-02T13:58:56;101188.44;;;9.02;53.67
15529;BME280;7866;52.280;9.500;2023-04-02T14:03:59;101201.22;;;9.96;55.56
15529;BME280;7866;52.280;9.500;2023-04-02T14:09:04;101207.56;;;9.85;55.77
15529;BME280;7866;52.280;9.500;2023-04-02T14:14:22;101203.59;;;9.89;53.36
15529;BME280;7866;52.280;9.500;2023-04-02T14:19:52;101203.63;;;9.79;52.24
15529;BME280;7866;52.280;9.500;2023-04-02T14:25:02;101210.94;;;9.87;54.27
15529;BME280;7866;52.280;9.500;2023-04-02T14:30:15;101209.97;;;9.78;52.16
15529;BME280;7866;52.280;9.500;2023-04-02T14:35:22;101216.84;;;10.00;51.33
15529;BME280;7866;52.280;9.500;2023-04-02T14:40:27;101213.50;;;9.59;52.35
15529;BME280;7866;52.280;9.500;2023-04-02T14:45:41;101217.75;;;9.62;52.40
15529;BME280;7866;52.280;9.500;2023-04-02T14:50:50;101234.59;;;9.24;55.68
15529;BME280;7866;52.280;9.500;2023-04-02T14:55:55;101241.63;;;9.25;55.42
15529;BME280;7866;52.280;9.500;2023-04-02T15:01:01;101246.91;;;8.96;53.96
15529;BME280;7866;52.280;9.500;2023-04-02T15:06:09;101244.75;;;9.30;50.74
15529;BME280;7866;52.280;9.500;2023-04-02T15:11:16;101254.44;;;9.41;49.82
15529;BME280;7866;52.280;9.500;2023-04-02T15:16:22;101249.09;;;9.31;53.43
15529;BME280;7866;52.280;9.500;2023-04-02T15:21:36;101257.97;;;9.51;51.92
15529;BME280;7866;52.280;9.500;2023-04-02T15:26:49;101260.50;;;9.52;52.15
15529;BME280;7866;52.280;9.500;2023-04-02T15:32:00;101254.75;;;9.47;51.80
15529;BME280;7866;52.280;9.500;2023-04-02T15:37:11;101252.91;;;9.86;50.68
15529;BME280;7866;52.280;9.500;2023-04-02T15:42:20;101270.94;;;9.84;52.80
15529;BME280;7866;52.280;9.500;2023-04-02T15:47:27;101267.16;;;9.58;52.85
15529;BME280;7866;52.280;9.500;2023-04-02T15:52:42;101273.47;;;9.67;51.43
15529;BME280;7866;52.280;9.500;2023-04-02T16:08:52;101295.50;;;9.20;54.72
15529;BME280;7866;52.280;9.500;2023-04-02T16:14:01;101301.66;;;9.11;55.19
15529;BME280;7866;52.280;9.500;2023-04-02T16:19:12;101307.91;;;8.60;54.71
15529;BME280;7866;52.280;9.500;2023-04-02T16:24:19;101320.16;;;8.62;55.19
15529;BME280;7866;52.280;9.500;2023-04-02T16:29:46;101323.34;;;8.35;53.56
15529;BME280;7866;52.280;9.500;2023-04-02T16:34:58;101338.00;;;8.62;54.41
15529;BME280;7866;52.280;9.500;2023-04-02T16:40:09;101340.25;;;8.87;54.16
15529;BME280;7866;52.280;9.500;2023-04-02T16:45:25;101351.19;;;8.84;54.01
15529;BME280;7866;52.280;9.500;2023-04-02T16:50:37;101350.19;;;8.55;54.91
15529;BME280;7866;52.280;9.500;2023-04-02T16:55:48;101364.44;;;8.44;55.00
15529;BME280;7866;52.280;9.500;2023-04-02T17:00:56;101370.13;;;8.19;55.95
15529;BME280;7866;52.280;9.500;2023-04-02T17:06:04;101378.19;;;8.07;56.32
15529;BME280;7866;52.280;9.500;2023-04-02T17:11:08;101387.06;;;7.97;57.56
15529;BME280;7866;52.280;9.500;2023-04-02T17:16:16;101382.88;;;7.83;57.69
15529;BME280;7866;52.280;9.500;2023-04-02T17:21:22;101392.06;;;7.90;57.98
15529;BME280;7866;52.280;9.500;2023-04-02T17:26:29;101400.41;;;7.85;58.00
15529;BME280;7866;52.280;9.500;2023-04-02T17:31:32;101411.25;;;7.73;58.50
15529;BME280;7866;52.280;9.500;2023-04-02T17:36:38;101416.56;;;7.73;58.10
15529;BME280;7866;52.280;9.500;2023-04-02T17:41:47;101418.66;;;7.58;57.95
15529;BME280;7866;52.280;9.500;2023-04-02T17:46:57;101440.34;;;7.53;57.23
15529;BME280;7866;52.280;9.500;2023-04-02T17:52:11;101437.72;;;7.42;58.53
15529;BME280;7866;52.280;9.500;2023-04-02T17:57:27;101436.72;;;7.32;59.22
15529;BME280;7866;52.280;9.500;2023-04-02T18:02:41;101451.25;;;7.16;59.99
15529;BME280;7866;52.280;9.500;2023-04-02T18:07:51;101457.06;;;7.10;60.49
15529;BME280;7866;52.280;9.500;2023-04-02T18:13:00;101460.44;;;7.01;61.28
15529;BME280;7866;52.280;9.500;2023-04-02T18:18:05;101466.25;;;6.95;61.06
15529;BME280;7866;52.280;9.500;2023-04-02T18:23:18;101482.72;;;7.00;61.11
15529;BME280;7866;52.280;9.500;2023-04-02T18:28:39;101489.25;;;6.96;60.54
15529;BME280;7866;52.280;9.500;2023-04-02T18:34:09;101491.63;;;6.88;59.81
15529;BME280;7866;52.280;9.500;2023-04-02T18:39:22;101501.91;;;6.81;60.02
15529;BME280;7866;52.280;9.500;2023-04-02T18:44:37;101508.78;;;6.73;60.09
15529;BME280;7866;52.280;9.500;2023-04-02T18:49:46;101523.00;;;6.60;61.50
15529;BME280;7866;52.280;9.500;2023-04-02T18:54:54;101531.16;;;6.46;62.02
15529;BME280;7866;52.280;9.500;2023-04-02T19:00:03;101539.09;;;6.35;62.77
15529;BME280;7866;52.280;9.500;2023-04-02T19:05:14;101559.78;;;6.19;63.16
15529;BME280;7866;52.280;9.500;2023-04-02T19:10:26;101563.63;;;6.02;64.08
15529;BME280;7866;52.280;9.500;2023-04-02T19:15:37;101582.59;;;5.97;64.56
15529;BME280;7866;52.280;9.500;2023-04-02T19:20:51;101584.28;;;5.85;64.93
15529;BME280;7866;52.280;9.500;2023-04-02T19:25:59;101591.94;;;5.77;64.81
15529;BME280;7866;52.280;9.500;2023-04-02T19:31:10;101599.16;;;5.62;65.29
15529;BME280;7866;52.280;9.500;2023-04-02T19:36:33;101604.91;;;5.43;66.61
15529;BME280;7866;52.280;9.500;2023-04-02T19:41:39;101610.31;;;5.42;64.28
15529;BME280;7866;52.280;9.500;2023-04-02T19:46:44;101621.91;;;5.41;65.31
15529;BME280;7866;52.280;9.500;2023-04-02T19:51:46;101623.25;;;5.34;64.65
15529;BME280;7866;52.280;9.500;2023-04-02T19:56:48;101629.19;;;5.25;64.43
15529;BME280;7866;52.280;9.500;2023-04-02T20:01:51;101633.97;;;5.19;64.56
15529;BME280;7866;52.280;9.500;2023-04-02T20:06:53;101645.19;;;5.10;64.62
15529;BME280;7866;52.280;9.500;2023-04-02T20:11:55;101640.50;;;5.01;65.28
15529;BME280;7866;52.280;9.500;2023-04-02T20:16:58;101650.16;;;5.02;65.23
15529;BME280;7866;52.280;9.500;2023-04-02T20:22:00;101653.22;;;4.96;64.94
15529;BME280;7866;52.280;9.500;2023-04-02T20:27:01;101659.78;;;4.90;65.30
15529;BME280;7866;52.280;9.500;2023-04-02T20:32:04;101664.72;;;4.82;65.50
15529;BME280;7866;52.280;9.500;2023-04-02T20:37:06;101675.84;;;4.75;66.36
15529;BME280;7866;52.280;9.500;2023-04-02T20:42:08;101684.41;;;4.65;65.99
15529;BME280;7866;52.280;9.500;2023-04-02T20:47:11;101695.59;;;4.56;66.35
15529;BME280;7866;52.280;9.500;2023-04-02T20:52:12;101696.28;;;4.45;66.87
15529;BME280;7866;52.280;9.500;2023-04-02T20:57:14;101706.13;;;4.43;67.11
15529;BME280;7866;52.280;9.500;2023-04-02T21:02:17;101706.69;;;4.34;66.22
15529;BME280;7866;52.280;9.500;2023-04-02T21:07:18;101705.94;;;4.32;66.34
15529;BME280;7866;52.280;9.500;2023-04-02T21:12:20;101720.41;;;4.27;65.57
15529;BME280;7866;52.280;9.500;2023-04-02T21:17:25;101728.59;;;4.24;66.13
15529;BME280;7866;52.280;9.500;2023-04-02T21:22:26;101737.84;;;4.16;66.39
15529;BME280;7866;52.280;9.500;2023-04-02T21:27:28;101747.13;;;4.09;67.53
15529;BME280;7866;52.280;9.500;2023-04-02T21:32:31;101747.13;;;3.95;66.98
15529;BME280;7866;52.280;9.500;2023-04-02T21:37:33;101757.97;;;3.90;67.42
15529;BME280;7866;52.280;9.500;2023-04-02T21:42:34;101753.72;;;3.88;68.02
15529;BME280;7866;52.280;9.500;2023-04-02T21:47:37;101770.69;;;3.69;68.74
15529;BME280;7866;52.280;9.500;2023-04-02T21:52:39;101772.09;;;3.61;69.23
15529;BME280;7866;52.280;9.500;2023-04-02T21:57:41;101771.41;;;3.57;69.58
15529;BME280;7866;52.280;9.500;2023-04-02T22:02:44;101783.94;;;3.39;69.96
15529;BME280;7866;52.280;9.500;2023-04-02T22:07:45;101791.22;;;3.50;68.78
15529;BME280;7866;52.280;9.500;2023-04-02T22:12:47;101789.69;;;3.46;68.78
15529;BME280;7866;52.280;9.500;2023-04-02T22:17:50;101786.47;;;3.41;68.36
15529;BME280;7866;52.280;9.500;2023-04-02T22:22:52;101791.66;;;3.42;68.49
15529;BME280;7866;52.280;9.500;2023-04-02T22:27:54;101793.47;;;3.42;68.47
15529;BME280;7866;52.280;9.500;2023-04-02T22:32:57;101793.16;;;3.32;69.19
15529;BME280;7866;52.280;9.500;2023-04-02T22:37:58;101800.00;;;3.20;68.57
15529;BME280;7866;52.280;9.500;2023-04-02T22:43:00;101811.69;;;3.16;69.20
15529;BME280;7866;52.280;9.500;2023-04-02T22:48:03;101813.47;;;3.16;68.98
15529;BME280;7866;52.280;9.500;2023-04-02T22:53:05;101817.13;;;3.13;69.08
15529;BME280;7866;52.280;9.500;2023-04-02T22:58:06;101827.28;;;3.05;69.78
15529;BME280;7866;52.280;9.500;2023-04-02T23:03:09;101829.66;;;2.94;70.42
15529;BME280;7866;52.280;9.500;2023-04-02T23:08:11;101830.09;;;2.86;70.42
15529;BME280;7866;52.280;9.500;2023-04-02T23:13:13;101837.31;;;2.83;70.78
15529;BME280;7866;52.280;9.500;2023-04-02T23:18:16;101839.53;;;2.75;70.78
15529;BME280;7866;52.280;9.500;2023-04-02T23:23:17;101842.41;;;2.70;71.67
15529;BME280;7866;52.280;9.500;2023-04-02T23:28:19;101842.56;;;2.67;72.08
15529;BME280;7866;52.280;9.500;2023-04-02T23:33:22;101835.38;;;2.53;72.69
15529;BME280;7866;52.280;9.500;2023-04-02T23:38:25;101838.38;;;2.30;73.43
15529;BME280;7866;52.280;9.500;2023-04-02T23:43:27;101842.25;;;2.22;74.01
15529;BME280;7866;52.280;9.500;2023-04-02T23:48:30;101848.97;;;2.12;74.96
15529;BME280;7866;52.280;9.500;2023-04-02T23:53:32;101847.63;;;2.04;75.79
15529;BME280;7866;52.280;9.500;2023-04-02T23:58:33;101863.41;;;2.05;75.94
